Latest Coastal Weather Observations for St Lawrence

IDQ60701

Issued at 5:43 pm EST Wednesday 8 February 2023 (issued every 10 minutes, with the page automatically refreshed every 10 minutes)

About coastal observations | Map of coastal stations | Coastal observations for QLD | Marine services | Other Formats
Station Details ID: 033210 Name: ST LAWRENCE Lat: -22.35 Lon: 149.52 Height: 9.19 m
Data from the previous 72 hours. | See also: Recent months at St Lawrence
Date/Time
EST
Wind Sea
Height
m
Swell Vis
km
Cloud Weather Temp
°C
Press
MSL
hPa
Rain since
9am
mm
Dir  Spd
kts
Gust
kts
Height
m
Period
s
Dir
08/05:30pm SE 8 11 - - - - - - - 26.8 1005.6 0.0
08/05:00pm ESE 10 15 - - - - - - - 26.4 1005.4 0.0
08/04:30pm SE 8 14 - - - - - - - 27.3 1005.2 0.0
08/04:00pm ESE 7 13 - - - - - - - 27.2 1005.3 0.0
08/03:30pm ESE 10 17 - - - - - - - 27.0 1005.4 0.0
08/03:00pm SE 7 11 - - - - - - - 26.9 1005.4 0.0
08/02:30pm SE 8 13 - - - - - - - 27.1 1005.6 0.0
08/02:00pm SE 9 16 - - - - - - - 28.1 1005.7 0.0
08/01:30pm SE 7 12 - - - - - - - 28.4 1005.9 0.0
08/01:00pm SE 9 13 - - - - - - - 28.8 1006.2 0.0
08/12:30pm SSE 10 17 - - - - - - - 29.5 1006.5 0.0
08/12:00pm SE 7 11 - - - - - - - 29.0 1006.9 0.0
08/11:30am SE 8 13 - - - - - - - 28.1 1007.4 0.0
08/11:00am SE 6 10 - - - - - - - 28.3 1007.7 0.0
08/10:30am SE 7 10 - - - - - - - 27.7 1007.9 0.0
08/10:00am SE 6 9 - - - - - - - 27.5 1008.1 0.0
08/09:30am S 7 11 - - - - - - - 27.0 1008.1 0.0
08/09:00am S 8 12 - - - - - - - 26.1 1008.4 0.2
08/08:30am S 8 12 - - - - - - - 25.6 1008.5 0.2
08/08:00am S 9 13 - - - - - - - 25.0 1008.5 0.2
08/07:30am S 7 14 - - - - - - - 24.3 1008.3 0.2
08/07:00am S 7 10 - - - - - - - 23.4 1008.2 0.2
08/06:30am S 6 8 - - - - - - - 22.7 1008.0 0.2
08/06:00am S 6 9 - - - - - - - 22.1 1007.9 0.2
08/05:30am S 6 10 - - - - - - - 22.1 1007.7 0.2
08/05:00am S 4 6 - - - - - - - 21.8 1007.4 0.2
08/04:30am SSW 3 4 - - - - - - - 21.8 1007.2 0.2
08/04:00am SSW 3 4 - - - - - - - 21.9 1007.4 0.2
08/03:30am SSW 4 6 - - - - - - - 22.3 1007.5 0.2
08/03:00am S 3 4 - - - - - - - 22.5 1007.6 0.2
08/02:30am S 4 7 - - - - - - - 22.6 1008.0 0.2
08/02:00am S 3 5 - - - - - - - 22.3 1008.1 0.2
08/01:30am S 3 5 - - - - - - - 22.2 1008.5 0.2
08/01:00am S 3 5 - - - - - - - 22.4 1008.8 0.2
08/12:30am S 3 4 - - - - - - - 22.5 1009.1 0.2
08/12:00am SSW 4 4 - - - - - - - 22.5 1009.5 0.2
 
Date/Time
EST
Wind Sea
Height
m
Swell Vis
km
Cloud Weather Temp
°C
Press
MSL
hPa
Rain since
9am
mm
Dir  Spd
kts
Gust
kts
Height
m
Period
s
Dir
07/11:30pm S 2 4 - - - - - - - 22.8 1009.8 0.2
07/11:00pm SSE 3 4 - - - - - - - 23.3 1010.1 0.2
07/10:30pm SSE 4 5 - - - - - - - 23.8 1010.3 0.2
07/10:00pm ESE 3 4 - - - - - - - 24.6 1010.3 0.2
07/09:30pm ESE 1 3 - - - - - - - 25.0 1010.2 0.2
07/09:00pm E 5 10 - - - - - - - 25.8 1009.9 0.2
07/08:30pm ESE 5 7 - - - - - - - 26.2 1009.5 0.2
07/08:00pm ESE 5 6 - - - - - - - 26.9 1009.1 0.2
07/07:30pm ESE 5 7 - - - - - - - 27.5 1008.7 0.2
07/07:00pm ESE 6 9 - - - - - - - 28.1 1008.5 0.2
07/06:30pm ESE 8 13 - - - - - - - 28.8 1008.0 0.2
07/06:00pm ESE 9 14 - - - - - - - 29.4 1007.8 0.2
07/05:30pm ESE 7 12 - - - - - - - 29.6 1007.4 0.2
07/05:00pm ESE 6 11 - - - - - - - 29.3 1007.2 0.2
07/04:30pm ESE 7 12 - - - - - - - 29.3 1007.2 0.2
07/04:00pm ESE 7 12 - - - - - - - 29.1 1007.3 0.2
07/03:30pm SE 7 12 - - - - - - - 29.8 1007.4 0.2
07/03:00pm SE 9 14 - - - - - - - 29.4 1007.8 0.2
07/02:30pm SE 8 12 - - - - - - - 29.4 1008.0 0.2
07/02:00pm SE 10 14 - - - - - - - 29.5 1008.1 0.2
07/01:30pm SE 9 16 - - - - - - - 29.4 1008.6 0.2
07/01:00pm SE 7 11 - - - - - - - 28.4 1008.9 0.2
07/12:30pm SSE 7 10 - - - - - - - 28.0 1009.1 0.2
07/12:00pm SSE 8 13 - - - - - - - 27.8 1009.3 0.2
07/11:30am SSE 6 9 - - - - - - - 28.3 1009.6 0.2
07/11:00am SSE 6 10 - - - - - - - 27.7 1010.1 0.2
07/10:30am SSE 6 10 - - - - - - - 27.3 1010.5 0.2
07/10:00am SSE 8 13 - - - - - - - 27.0 1010.6 0.2
07/09:30am S 7 13 - - - - - - - 27.8 1010.5 0.0
07/09:00am S 8 11 - - - - - - - 26.5 1010.6 4.6
07/08:30am S 7 10 - - - - - - - 26.2 1010.4 4.6
07/08:00am S 7 11 - - - - - - - 26.5 1010.2 4.6
07/07:30am SSE 6 9 - - - - - - - 26.5 1010.0 4.6
07/07:00am SSE 5 7 - - - - - - - 25.8 1009.9 4.6
07/06:30am SSE 4 6 - - - - - - - 25.3 1009.5 4.6
07/06:00am SE 4 5 - - - - - - - 25.0 1009.1 4.6
07/05:30am SSE 4 6 - - - - - - - 24.9 1008.9 4.6
07/05:00am SSE 3 5 - - - - - - - 24.8 1008.9 4.6
07/04:30am SE 4 6 - - - - - - - 24.8 1008.7 4.6
07/04:00am SE 6 9 - - - - - - - 24.8 1008.8 4.6
07/03:30am SE 6 9 - - - - - - - 24.8 1008.7 4.6
07/03:00am SE 7 11 - - - - - - Recent precip. 25.0 1008.8 4.6
07/02:30am SE 5 9 - - - - - - - 25.1 1008.8 4.6
07/02:00am SE 5 8 - - - - - - - 25.3 1009.3 4.2
07/01:30am ESE 5 9 - - - - - - - 25.6 1009.3 4.0
07/01:00am SE 8 12 - - - - - - - 26.6 1009.6 3.8
07/12:30am SSE 5 9 - - - - - - - 26.9 1009.7 3.8
07/12:00am S 3 5 - - - - - - - 26.8 1010.1 3.8
 
Date/Time
EST
Wind Sea
Height
m
Swell Vis
km
Cloud Weather Temp
°C
Press
MSL
hPa
Rain since
9am
mm
Dir  Spd
kts
Gust
kts
Height
m
Period
s
Dir
06/11:30pm SSE 4 6 - - - - - - - 27.0 1010.3 3.8
06/11:00pm SE 7 10 - - - - - - - 27.3 1010.7 3.8
06/10:30pm SE 6 9 - - - - - - - 27.4 1010.9 3.8
06/10:00pm ESE 3 5 - - - - - - - 27.3 1011.0 3.8
06/09:30pm ESE 4 7 - - - - - - - 27.4 1010.9 3.8
06/09:00pm E 6 9 - - - - - - - 27.6 1010.5 3.8
06/08:30pm ESE 4 7 - - - - - - - 28.0 1010.4 3.8
06/08:00pm E 5 7 - - - - - - - 28.2 1010.1 3.8
06/07:30pm E 4 6 - - - - - - - 28.1 1009.7 3.8
06/07:00pm ESE 3 4 - - - - - - - 27.9 1009.4 3.8
06/06:30pm ESE 5 8 - - - - - - - 28.2 1009.2 3.8
06/06:00pm ESE 3 5 - - - - - - Recent precip. 27.9 1008.8 3.8
06/05:30pm ENE 7 11 - - - - - - - 30.0 1008.4 3.4
06/05:00pm NE 7 12 - - - - - - - 30.8 1008.5 3.4
06/04:30pm NE 8 11 - - - - - - - 30.9 1008.5 3.4
06/04:00pm ENE 8 13 - - - - - - - 30.5 1008.5 3.4
06/03:30pm ENE 9 16 - - - - - - - 30.4 1008.7 3.2
06/03:00pm ENE 8 15 - - - - - - - 28.1 1009.2 3.2
06/02:30pm NE 9 17 - - - - - - - 30.3 1009.1 3.2
06/02:00pm NNE 7 9 - - - - - - - 29.2 1009.2 3.2
06/01:30pm ENE 4 11 - - - - - - - 30.4 1009.6 1.2
06/01:00pm SSE 5 9 - - - - - - - 30.1 1009.8 1.2
06/12:30pm ESE 6 12 - - - - - - - 32.1 1009.9 0.2
06/12:00pm SE 6 9 - - - - - - - 32.0 1010.2 0.2
06/11:30am ESE 5 9 - - - - - - - 31.5 1010.5 0.2
06/11:00am SE 6 10 - - - - - - - 30.9 1010.8 0.2
06/10:30am SSE 6 12 - - - - - - - 31.1 1011.3 0.2
06/10:00am SSE 6 10 - - - - - - - 30.4 1011.6 0.2
06/09:30am SE 5 8 - - - - - - - 29.9 1011.7 0.2
06/09:00am SE 6 10 - - - - - - - 28.9 1011.8 0.2
06/08:30am SSE 7 10 - - - - - - - 28.9 1011.7 0.2
06/08:00am SE 7 9 - - - - - - - 28.5 1011.8 0.2
06/07:30am SSE 4 8 - - - - - - - 27.8 1011.6 0.2
06/07:00am SSE 4 7 - - - - - - - 26.9 1011.5 0.2
06/06:30am S 5 7 - - - - - - - 26.5 1011.3 0.2
06/06:00am S 4 6 - - - - - - - 26.2 1010.9 0.2
06/05:30am S 4 5 - - - - - - - 26.3 1010.4 0.2
06/05:00am S 4 5 - - - - - - - 26.2 1010.1 0.2
06/04:30am S 4 6 - - - - - - - 26.2 1009.9 0.2
06/04:00am S 5 7 - - - - - - - 26.3 1009.5 0.2
06/03:30am S 5 7 - - - - - - - 26.4 1009.6 0.2
06/03:00am S 5 7 - - - - - - - 26.4 1009.5 0.2
06/02:30am S 4 6 - - - - - - - 26.4 1009.7 0.2
06/02:00am S 4 6 - - - - - - - 26.4 1009.6 0.2
06/01:30am S 3 5 - - - - - - - 26.5 1009.9 0.2
06/01:00am S 3 5 - - - - - - - 26.7 1010.3 0.2
06/12:30am S 4 5 - - - - - - - 27.0 1010.9 0.2
06/12:00am SSE 3 4 - - - - - - - 27.1 1011.2 0.2
 
Date/Time
EST
Wind Sea
Height
m
Swell Vis
km
Cloud Weather Temp
°C
Press
MSL
hPa
Rain since
9am
mm
Dir  Spd
kts
Gust
kts
Height
m
Period
s
Dir
05/11:30pm SE 3 5 - - - - - - - 27.1 1011.1 0.2
05/11:00pm SE 4 5 - - - - - - - 27.4 1011.0 0.2
05/10:30pm SE 5 7 - - - - - - - 27.7 1010.9 0.2
05/10:00pm ESE 7 11 - - - - - - - 28.3 1010.6 0.2
05/09:30pm E 6 11 - - - - - - - 28.6 1010.5 0.2
05/09:00pm E 7 16 - - - - - - - 28.7 1010.1 0.2
05/08:30pm E 5 9 - - - - - - - 28.7 1009.8 0.2
05/08:00pm NE 7 11 - - - - - - - 28.7 1009.4 0.2
05/07:30pm NNE 8 11 - - - - - - - 29.4 1008.9 0.2
05/07:00pm NNE 9 13 - - - - - - - 29.5 1008.4 0.2
05/06:30pm NNE 9 12 - - - - - - - 29.8 1008.2 0.2
05/06:00pm NNE 8 13 - - - - - - - 30.4 1007.8 0.2

Other formats

Comma delimited format used in spreadsheet applications
http://www.bom.gov.au/fwo/IDQ60701/IDQ60701.95369.axf

JavaScript Object Notation format (JSON) in row-major order
http://www.bom.gov.au/fwo/IDQ60701/IDQ60701.95369.json

Data quality

Most of these data are generated automatically and are frequently updated. Quality checks on data are not normally performed. It is possible for incorrect values to appear. Refer to information at About Latest Weather Observations and please check the disclaimer before using these data.